KC7NGC-B Weather Reports


Display with metric or nautical units.
time (UTC)temp
F
wind
direction
speed
MPH
gust
MPH
rain 1hr
in
rain 24hr
in
rain mn
in
humidity
%
barometer
mb
20200401072829 38 236 7.0 11.0 0.00 0.00 0.00 70 1014.7
20200401071821 39 231 10.0 14.0 0.00 0.00 0.00 69 1014.7
20200401070829 39 225 9.0 11.0 0.00 0.00 0.00 67 1014.5
20200401065821 39 247 7.0 11.0 0.00 0.00 0.00 66 1014.5
20200401064829 39 237 8.0 11.0 0.00 0.00 0.00 68 1014.3
20200401063821 39 245 8.0 13.0 0.00 0.00 0.00 68 1014.5
20200401062829 39 233 9.0 13.0 0.00 0.00 0.00 67 1014.7
20200401061822 39 260 7.0 11.0 0.00 0.00 0.00 71 1014.7
20200401060830 39 243 8.0 15.0 0.00 0.00 0.00 71 1014.5
20200401055821 39 243 6.0 9.0 0.00 0.00 0.00 71 1014.9
20200401054830 39 249 7.0 14.0 0.00 0.00 0.00 71 1014.5
20200401053821 40 238 10.0 15.0 0.00 0.00 0.00 70 1014.3
20200401052829 40 256 9.0 13.0 0.00 0.00 0.00 70 1014.3
20200401051821 40 249 7.0 11.0 0.00 0.00 0.00 70 1014.5
20200401050829 41 231 9.0 13.0 0.00 0.00 0.00 70 1014.3
20200401045842 41 231 9.0 15.0 0.00 0.00 0.00 66 1014.3
20200401044829 41 240 12.0 20.0 0.00 0.00 0.00 66 1014.3
20200401043821 42 227 12.0 16.0 0.00 0.00 0.00 65 1014.3
20200401042829 41 236 7.0 13.0 0.00 0.00 0.00 66 1014.2
20200401041821 41 231 6.0 8.0 0.00 0.00 0.00 67 1014.2
20200401040830 41 239 11.0 16.0 0.00 0.00 0.00 66 1014.0
20200401035841 42 227 13.0 18.0 0.00 0.00 0.00 65 1014.0
20200401034829 42 233 9.0 11.0 0.00 0.00 0.00 64 1013.8
20200401033821 43 225 10.0 13.0 0.00 0.00 0.00 62 1013.8
20200401032829 42 231 9.0 14.0 0.00 0.00 0.00 63 1013.6
20200401031821 43 227 7.0 14.0 0.00 0.00 0.00 61 1013.6
20200401030829 44 216 12.0 16.0 0.00 0.00 0.00 58 1013.6
20200401025821 46 236 10.0 13.0 0.00 0.00 0.00 53 1013.4
20200401024830 45 248 7.0 13.0 0.00 0.00 0.00 51 1013.3
20200401023822 46 243 9.0 13.0 0.00 0.00 0.00 47 1013.2
20200401022830 47 237 7.0 10.0 0.00 0.00 0.00 51 1012.9
20200401021822 49 262 6.0 8.0 0.00 0.00 0.00 41 1013.3
20200401020829 50 259 6.0 9.0 0.00 0.00 0.00 39 1012.9
20200401015821 50 251 6.0 11.0 0.00 0.00 0.00 39 1012.9
20200401014829 50 0.0 0.0 0.00 0.00 0.00 49 1012.9
20200401013821 50 155 4.0 7.0 0.00 0.00 0.00 46 1012.8
20200401012830 52 0.0 0.0 0.00 0.00 0.00 44 1012.9
20200401011822 52 0.0 0.0 0.00 0.00 0.00 45 1012.9
20200401010830 51 275 4.0 6.0 0.00 0.00 0.00 38 1012.9
20200401005822 50 0.0 0.0 0.00 0.00 0.00 41 1012.7
20200401004830 51 278 2.0 5.0 0.00 0.00 0.00 39 1012.9
20200401003821 51 240 2.0 6.0 0.00 0.00 0.00 38 1012.7
20200401002829 51 280 3.0 7.0 0.00 0.00 0.00 36 1012.6
20200401001822 50 323 6.0 10.0 0.00 0.00 0.00 37 1012.6
20200401000829 50 316 5.0 10.0 0.00 0.00 0.00 42 1012.6
20200331235821 48 302 7.0 11.0 0.00 0.00 0.00 43 1012.8
20200331234830 49 276 19.0 24.0 0.00 0.00 0.00 43 1012.9
20200331233822 51 248 7.0 10.0 0.00 0.00 0.00 35 1012.6
20200331232829 51 263 5.0 7.0 0.00 0.00 0.00 40 1012.4
20200331231822 52 276 0.0 3.0 0.00 0.00 0.00 41 1012.6
20200331230830 52 267 5.0 8.0 0.00 0.00 0.00 39 1012.6
20200331225821 48 302 2.0 6.0 0.00 0.00 0.00 44 1012.6
20200331224829 48 355 8.0 13.0 0.00 0.00 0.00 48 1012.2
20200331223822 48 343 14.0 21.0 0.00 0.00 0.00 46 1012.7
20200331222829 51 347 17.0 27.0 0.00 0.00 0.00 46 1012.6
20200331221822 54 321 19.0 25.0 0.00 0.00 0.00 39 1012.4
20200331220830 55 259 11.0 16.0 0.00 0.00 0.00 32 1012.1
20200331215822 55 263 14.0 20.0 0.00 0.00 0.00 33 1011.9
20200331214829 53 255 12.0 17.0 0.00 0.00 0.00 34 1012.2
20200331213822 52 263 13.0 18.0 0.00 0.00 0.00 31 1012.2
20200331212830 53 272 10.0 15.0 0.00 0.00 0.00 27 1012.2
20200331211822 54 268 11.0 16.0 0.00 0.00 0.00 33 1012.2
20200331210830 54 247 11.0 14.0 0.00 0.00 0.00 34 1012.2
20200331205822 51 205 9.0 13.0 0.00 0.00 0.00 44 1012.0
20200331204830 50 216 6.0 11.0 0.00 0.00 0.00 47 1012.2
20200331203822 50 250 6.0 10.0 0.00 0.00 0.00 43 1012.2
20200331202837 50 281 9.0 13.0 0.00 0.00 0.00 46 1012.6
20200331201822 53 235 11.0 14.0 0.00 0.00 0.00 36 1012.2
20200331200830 53 278 8.0 10.0 0.00 0.00 0.00 38 1012.0
20200331195822 54 240 5.0 8.0 0.00 0.00 0.00 37 1012.2
20200331194830 54 242 10.0 17.0 0.00 0.00 0.00 38 1012.4
20200331193822 52 269 8.0 11.0 0.00 0.00 0.00 41 1012.6
20200331192830 52 250 7.0 11.0 0.00 0.00 0.00 43 1012.4
20200331191822 52 254 8.0 13.0 0.00 0.00 0.00 45 1012.4
20200331190830 52 275 12.0 16.0 0.00 0.00 0.00 43 1012.6
20200331185822 53 258 9.0 15.0 0.00 0.00 0.00 43 1012.2
20200331184830 53 231 8.0 13.0 0.00 0.00 0.00 39 1012.4
20200331183822 53 238 13.0 20.0 0.00 0.00 0.00 41 1012.6
20200331182830 54 217 13.0 20.0 0.00 0.00 0.00 45 1012.2
20200331181822 52 220 15.0 22.0 0.00 0.00 0.00 51 1012.2
20200331180830 51 260 9.0 17.0 0.00 0.00 0.00 51 1012.6
20200331175822 50 248 13.0 17.0 0.00 0.00 0.00 53 1012.2
20200331174830 50 264 8.0 18.0 0.00 0.00 0.00 52 1012.2
20200331173823 49 232 9.0 13.0 0.00 0.00 0.00 57 1012.2
20200331172830 49 238 10.0 17.0 0.00 0.00 0.00 55 1012.5
20200331171822 48 238 10.0 15.0 0.00 0.00 0.00 59 1012.9
20200331170830 47 253 14.0 18.0 0.00 0.00 0.00 60 1012.7
20200331165822 45 253 10.0 15.0 0.00 0.00 0.00 67 1012.6
20200331164830 43 223 7.0 14.0 0.00 0.00 0.00 71 1012.6
20200331163822 44 220 6.0 9.0 0.00 0.00 0.00 68 1012.2
20200331162830 44 222 8.0 17.0 0.00 0.00 0.00 70 1012.6
20200331161822 43 240 13.0 18.0 0.00 0.00 0.00 72 1012.6
20200331160830 43 235 9.0 13.0 0.00 0.00 0.00 74 1012.4
20200331155822 42 227 13.0 18.0 0.00 0.00 0.00 75 1012.4
20200331154830 42 248 13.0 18.0 0.00 0.00 0.00 78 1012.2
20200331153823 42 222 9.0 11.0 0.00 0.00 0.00 79 1011.9
20200331152830 41 227 10.0 15.0 0.00 0.00 0.00 78 1011.9
20200331151822 42 226 14.0 17.0 0.00 0.00 0.00 77 1011.9
20200331150830 42 220 16.0 22.0 0.00 0.00 0.00 76 1011.7
20200331145822 43 223 10.0 13.0 0.00 0.00 0.00 76 1011.3
20200331144830 41 222 9.0 15.0 0.00 0.00 0.00 78 1010.9
20200331143822 41 218 15.0 20.0 0.00 0.00 0.00 79 1011.1
20200331142830 41 225 19.0 24.0 0.00 0.00 0.00 79 1011.6
20200331141822 41 236 16.0 26.0 0.00 0.00 0.00 79 1011.2
20200331140831 40 234 18.0 23.0 0.00 0.00 0.00 81 1011.4
20200331135822 40 262 17.0 22.0 0.00 0.00 0.00 81 1011.4
20200331134831 40 242 14.0 18.0 0.00 0.00 0.00 84 1011.2
20200331133822 40 215 21.0 27.0 0.00 0.00 0.00 83 1011.2
20200331132830 41 232 15.0 20.0 0.00 0.00 0.00 82 1011.2
20200331131822 41 210 13.0 20.0 0.00 0.00 0.00 82 1011.4
20200331130830 41 211 15.0 20.0 0.00 0.00 0.00 83 1011.2
20200331125822 41 219 16.0 22.0 0.00 0.00 0.00 82 1011.2
20200331124830 41 214 14.0 20.0 0.00 0.00 0.00 82 1011.6
20200331123822 41 216 12.0 16.0 0.00 0.00 0.00 81 1011.4
20200331122830 41 222 15.0 18.0 0.00 0.00 0.00 81 1011.4
20200331121822 41 207 13.0 16.0 0.00 0.00 0.00 81 1011.0
20200331120830 41 222 15.0 21.0 0.00 0.00 0.00 81 1011.2
20200331115822 41 235 17.0 21.0 0.00 0.00 0.00 81 1010.9
20200331114830 41 218 17.0 23.0 0.00 0.00 0.00 81 1011.3
20200331113822 41 219 13.0 18.0 0.00 0.00 0.00 81 1011.7
20200331112830 41 233 13.0 17.0 0.00 0.00 0.00 80 1011.6
20200331111822 42 224 15.0 20.0 0.00 0.00 0.00 79 1011.9
20200331110830 42 235 15.0 25.0 0.00 0.00 0.00 79 1011.5
20200331105822 41 263 14.0 23.0 0.00 0.00 0.00 78 1011.6
20200331104830 41 232 14.0 18.0 0.00 0.00 0.00 78 1011.2
20200331103822 42 223 17.0 22.0 0.00 0.00 0.00 77 1011.0
20200331102830 42 237 11.0 16.0 0.00 0.00 0.00 76 1011.3
20200331101822 42 227 15.0 20.0 0.00 0.00 0.00 75 1011.2
20200331100831 43 238 18.0 25.0 0.00 0.00 0.00 75 1011.0
20200331095822 43 220 18.0 24.0 0.00 0.00 0.00 74 1011.0
20200331094830 43 207 13.0 18.0 0.00 0.00 0.00 75 1011.9
20200331093822 42 215 12.0 20.0 0.00 0.00 0.00 76 1012.2
20200331092830 42 238 15.0 21.0 0.00 0.00 0.00 77 1012.2
20200331091822 42 221 12.0 20.0 0.00 0.00 0.00 77 1011.9
20200331090831 42 219 15.0 20.0 0.00 0.00 0.00 77 1012.0
20200331085822 42 233 17.0 23.0 0.00 0.00 0.00 77 1011.9
20200331084830 42 227 11.0 15.0 0.00 0.00 0.00 77 1012.2
20200331083822 42 231 12.0 17.0 0.00 0.00 0.00 77 1012.2
20200331082830 42 220 13.0 22.0 0.00 0.00 0.00 76 1012.6
20200331081822 42 224 15.0 18.0 0.00 0.00 0.00 78 1012.2
20200331080830 42 218 14.0 21.0 0.00 0.00 0.00 78 1012.2
20200331075822 41 220 16.0 21.0 0.00 0.00 0.00 78 1012.4
20200331074830 41 218 21.0 26.0 0.00 0.00 0.00 77 1012.6
20200331073822 41 228 8.0 11.0 0.00 0.00 0.00 78 1012.6